Time;durP1;ratioP1;P1;durP2;ratioP2;P2;SDS_P1;SDS_P2;PMS_P1;PMS_P2;Temp;Humidity;BMP_temperature;BMP_pressure;BME280_temperature;BME280_humidity;BME280_pressure;Samples;Min_cycle;Max_cycle;Signal;HPM_P1;HPM_P2
2023/08/11 00:00:41;;;;;;;0.10;0.10;;;;;;;;;;10300324;28;20086;-65
2023/08/11 00:05:42;;;;;;;0.10;0.10;;;;;;;;;;10315114;28;20397;-66
2023/08/11 00:10:42;;;;;;;0.10;0.10;;;;;;;;;;10313196;28;20034;-65
2023/08/11 00:15:43;;;;;;;0.10;0.10;;;;;;;;;;10315656;28;20640;-65
2023/08/11 00:20:44;;;;;;;0.10;0.10;;;;;;;;;;10310271;28;20022;-65
2023/08/11 00:25:44;;;;;;;0.03;0.03;;;;;;;;;;10317242;28;20088;-64
2023/08/11 00:30:45;;;;;;;0.10;0.10;;;;;;;;;;10313769;28;20133;-65
2023/08/11 00:35:45;;;;;;;0.10;0.10;;;;;;;;;;10305812;28;20188;-65
2023/08/11 00:40:45;;;;;;;0.10;0.10;;;;;;;;;;10321109;28;20041;-64
2023/08/11 00:45:47;;;;;;;0.10;0.10;;;;;;;;;;10314402;28;20261;-66
2023/08/11 00:50:47;;;;;;;0.10;0.10;;;;;;;;;;10309287;28;20034;-65
2023/08/11 00:55:47;;;;;;;0.10;0.10;;;;;;;;;;10310406;28;20501;-65
2023/08/11 01:00:50;;;;;;;0.10;0.10;;;;;;;;;;10312937;28;20023;-65
2023/08/11 01:05:57;;;;;;;0.10;0.10;;;;;;;;;;10313919;28;20007;-65
2023/08/11 01:10:57;;;;;;;0.10;0.10;;;;;;;;;;10312283;28;20058;-66
2023/08/11 01:15:58;;;;;;;0.10;0.10;;;;;;;;;;10314688;28;20026;-65
2023/08/11 01:21:00;;;;;;;0.10;0.10;;;;;;;;;;10314734;28;20023;-65
2023/08/11 01:26:00;;;;;;;0.10;0.10;;;;;;;;;;10314027;28;20034;-65
2023/08/11 01:31:01;;;;;;;0.10;0.10;;;;;;;;;;10317032;28;20030;-66
2023/08/11 01:36:01;;;;;;;0.10;0.10;;;;;;;;;;10315308;28;20031;-64
2023/08/11 01:41:01;;;;;;;0.10;0.10;;;;;;;;;;10310668;28;20018;-65
2023/08/11 01:46:02;;;;;;;0.10;0.10;;;;;;;;;;10313231;28;20018;-65
2023/08/11 01:51:02;;;;;;;0.10;0.10;;;;;;;;;;10317129;28;20365;-64
2023/08/11 01:56:04;;;;;;;0.00;0.00;;;;;;;;;;10313882;28;20105;-65
2023/08/11 02:01:04;;;;;;;0.10;0.10;;;;;;;;;;10309329;28;20046;-65
2023/08/11 02:06:04;;;;;;;0.10;0.10;;;;;;;;;;10308013;28;20065;-65
2023/08/11 02:11:04;;;;;;;0.10;0.10;;;;;;;;;;10311915;28;20033;-65
2023/08/11 02:16:05;;;;;;;0.10;0.10;;;;;;;;;;10309046;28;20320;-65
2023/08/11 02:21:07;;;;;;;0.10;0.10;;;;;;;;;;10308492;28;20022;-66
2023/08/11 02:26:07;;;;;;;0.10;0.10;;;;;;;;;;10311880;28;20313;-65
2023/08/11 02:31:10;;;;;;;0.10;0.10;;;;;;;;;;10301722;28;20018;-65
2023/08/11 02:36:11;;;;;;;0.10;0.10;;;;;;;;;;10306693;28;20430;-65
2023/08/11 02:41:11;;;;;;;0.10;0.10;;;;;;;;;;10310776;28;20022;-65
2023/08/11 02:46:11;;;;;;;0.10;0.10;;;;;;;;;;10312315;28;20462;-65
2023/08/11 02:51:12;;;;;;;0.10;0.10;;;;;;;;;;10314841;28;20164;-63
2023/08/11 02:56:15;;;;;;;0.10;0.10;;;;;;;;;;10310946;28;20444;-64
2023/08/11 03:01:15;;;;;;;0.10;0.10;;;;;;;;;;10311346;28;20030;-65
2023/08/11 03:06:15;;;;;;;0.10;0.10;;;;;;;;;;10303127;28;20022;-65
2023/08/11 03:11:15;;;;;;;0.10;0.10;;;;;;;;;;10303280;28;20022;-64
2023/08/11 03:16:15;;;;;;;0.10;0.10;;;;;;;;;;10308430;28;20046;-63
2023/08/11 03:21:16;;;;;;;0.10;0.10;;;;;;;;;;10308188;28;20042;-64
2023/08/11 03:26:16;;;;;;;0.10;0.10;;;;;;;;;;10310570;28;20720;-64
2023/08/11 03:31:16;;;;;;;0.10;0.10;;;;;;;;;;10315444;28;20480;-64
2023/08/11 03:36:16;;;;;;;0.10;0.10;;;;;;;;;;10310415;28;20030;-64
2023/08/11 03:41:17;;;;;;;0.10;0.10;;;;;;;;;;10308878;28;20023;-65
2023/08/11 03:46:17;;;;;;;0.10;0.10;;;;;;;;;;10313872;28;20022;-64
2023/08/11 03:51:17;;;;;;;0.10;0.10;;;;;;;;;;10319177;28;20018;-64
2023/08/11 03:56:18;;;;;;;0.10;0.10;;;;;;;;;;10310288;28;20423;-63
2023/08/11 04:01:18;;;;;;;0.10;0.10;;;;;;;;;;10299117;28;20110;-64
2023/08/11 04:06:18;;;;;;;0.10;0.10;;;;;;;;;;10308148;28;20014;-64
2023/08/11 04:11:18;;;;;;;0.10;0.10;;;;;;;;;;10321295;28;20085;-65
2023/08/11 04:16:19;;;;;;;0.10;0.10;;;;;;;;;;10315734;28;20025;-65
2023/08/11 04:21:19;;;;;;;0.10;0.10;;;;;;;;;;10311483;28;20030;-63
2023/08/11 04:26:19;;;;;;;0.10;0.10;;;;;;;;;;10314360;28;20018;-64
2023/08/11 04:31:21;;;;;;;0.10;0.10;;;;;;;;;;10312038;28;20076;-64
2023/08/11 04:36:21;;;;;;;0.10;0.10;;;;;;;;;;10310621;28;20469;-64
2023/08/11 04:41:21;;;;;;;0.10;0.10;;;;;;;;;;10316250;28;20018;-64
2023/08/11 04:46:21;;;;;;;0.10;0.10;;;;;;;;;;10311145;28;20356;-65
2023/08/11 04:51:21;;;;;;;0.10;0.10;;;;;;;;;;10309658;28;20018;-65
2023/08/11 04:56:22;;;;;;;0.10;0.10;;;;;;;;;;10313855;28;20019;-65
2023/08/11 05:01:22;;;;;;;0.10;0.10;;;;;;;;;;10312969;28;20058;-63
2023/08/11 05:06:23;;;;;;;0.10;0.10;;;;;;;;;;10308649;28;20030;-64
2023/08/11 05:11:23;;;;;;;0.10;0.10;;;;;;;;;;10314674;28;20026;-65
2023/08/11 05:16:24;;;;;;;0.10;0.10;;;;;;;;;;10315666;28;20490;-65
2023/08/11 05:21:24;;;;;;;0.10;0.10;;;;;;;;;;10305065;28;20027;-65
2023/08/11 05:26:25;;;;;;;0.10;0.10;;;;;;;;;;10313934;28;20011;-65
2023/08/11 05:31:25;;;;;;;0.10;0.10;;;;;;;;;;10311562;28;20030;-65
2023/08/11 05:36:25;;;;;;;0.10;0.10;;;;;;;;;;10329121;22;20043;-64
2023/08/11 05:41:25;;;;;;;0.10;0.10;;;;;;;;;;10346223;28;20365;-64
2023/08/11 05:46:26;;;;;;;0.10;0.10;;;;;;;;;;10349263;28;20021;-63
2023/08/11 05:51:26;;;;;;;0.10;0.10;;;;;;;;;;10362086;28;20041;-64
2023/08/11 05:56:26;;;;;;;0.10;0.10;;;;;;;;;;10355642;28;20482;-63
2023/08/11 06:01:26;;;;;;;0.03;0.03;;;;;;;;;;10363134;28;20022;-64
2023/08/11 06:06:27;;;;;;;0.10;0.10;;;;;;;;;;10361484;28;20018;-64
2023/08/11 06:11:27;;;;;;;0.10;0.10;;;;;;;;;;10355608;28;20053;-64
2023/08/11 06:16:27;;;;;;;0.00;0.00;;;;;;;;;;10354820;28;20017;-62
2023/08/11 06:21:27;;;;;;;0.10;0.10;;;;;;;;;;10359075;28;20384;-64
2023/08/11 06:26:28;;;;;;;0.10;0.10;;;;;;;;;;10360515;28;20041;-65
2023/08/11 06:31:28;;;;;;;0.00;0.00;;;;;;;;;;10354040;28;20507;-62
2023/08/11 06:36:29;;;;;;;0.10;0.10;;;;;;;;;;10361169;28;20103;-62
2023/08/11 06:41:29;;;;;;;0.10;0.10;;;;;;;;;;10349790;28;20113;-64
2023/08/11 06:46:29;;;;;;;0.10;0.10;;;;;;;;;;10360900;28;20029;-62
2023/08/11 06:51:29;;;;;;;0.10;0.10;;;;;;;;;;10358826;28;20026;-64
2023/08/11 06:56:29;;;;;;;0.10;0.10;;;;;;;;;;10359510;28;20029;-64
2023/08/11 07:01:29;;;;;;;0.00;0.00;;;;;;;;;;10363330;28;20030;-64
2023/08/11 07:06:30;;;;;;;0.10;0.10;;;;;;;;;;10361410;28;20017;-65
2023/08/11 07:11:30;;;;;;;0.10;0.10;;;;;;;;;;10355627;28;20033;-64
2023/08/11 07:16:30;;;;;;;0.10;0.10;;;;;;;;;;10351342;28;20036;-64
2023/08/11 07:21:30;;;;;;;0.10;0.10;;;;;;;;;;10371635;28;20029;-65
2023/08/11 07:26:31;;;;;;;0.10;0.10;;;;;;;;;;10366591;28;20057;-64
2023/08/11 07:31:31;;;;;;;0.10;0.10;;;;;;;;;;10370114;28;20080;-65
2023/08/11 07:36:31;;;;;;;0.00;0.00;;;;;;;;;;10365525;28;20018;-65
2023/08/11 07:41:31;;;;;;;0.08;0.08;;;;;;;;;;10366896;28;20022;-64
2023/08/11 07:46:31;;;;;;;0.10;0.10;;;;;;;;;;10363013;28;20018;-65
2023/08/11 07:51:32;;;;;;;0.10;0.10;;;;;;;;;;10369187;28;20843;-65
2023/08/11 07:56:32;;;;;;;0.00;0.00;;;;;;;;;;10368486;28;20018;-65
2023/08/11 08:01:33;;;;;;;0.00;0.00;;;;;;;;;;10365112;28;20030;-65
2023/08/11 08:06:35;;;;;;;0.00;0.00;;;;;;;;;;10366328;28;20393;-65
2023/08/11 08:11:36;;;;;;;0.10;0.10;;;;;;;;;;10360701;28;20028;-63
2023/08/11 08:16:44;;;;;;;0.10;0.10;;;;;;;;;;10358651;28;20113;-65
2023/08/11 08:21:46;;;;;;;0.10;0.10;;;;;;;;;;10361024;28;20021;-65
2023/08/11 08:26:47;;;;;;;0.00;0.00;;;;;;;;;;10368207;28;20014;-65
2023/08/11 08:31:48;;;;;;;0.00;0.00;;;;;;;;;;10367515;28;20060;-63
2023/08/11 08:36:48;;;;;;;0.00;0.00;;;;;;;;;;10368115;28;20501;-63
2023/08/11 08:41:48;;;;;;;0.00;0.00;;;;;;;;;;10361762;28;20034;-63
2023/08/11 08:46:50;;;;;;;0.00;0.00;;;;;;;;;;10364515;28;20079;-63
2023/08/11 08:51:51;;;;;;;0.00;0.00;;;;;;;;;;10369433;28;20385;-63
2023/08/11 08:56:52;;;;;;;0.00;0.00;;;;;;;;;;10369797;28;20045;-62
2023/08/11 09:01:52;;;;;;;0.00;0.00;;;;;;;;;;10368405;28;20032;-63
2023/08/11 09:06:55;;;;;;;0.00;0.00;;;;;;;;;;10364818;28;20036;-63
2023/08/11 09:11:55;;;;;;;0.00;0.00;;;;;;;;;;10364648;28;20025;-62
2023/08/11 09:16:57;;;;;;;0.00;0.00;;;;;;;;;;10368230;28;20021;-63
2023/08/11 09:21:58;;;;;;;0.00;0.00;;;;;;;;;;10367469;28;20392;-63
2023/08/11 09:26:59;;;;;;;0.00;0.00;;;;;;;;;;10350944;28;20019;-65
2023/08/11 09:32:02;;;;;;;0.00;0.00;;;;;;;;;;10364568;28;20331;-66
2023/08/11 09:37:02;;;;;;;;;;;;;;;;;;10358331;28;20030;-63
2023/08/11 09:42:03;;;;;;;0.00;0.00;;;;;;;;;;10349369;28;19910;-63
2023/08/11 09:47:04;;;;;;;0.00;0.00;;;;;;;;;;10361185;28;20022;-64
2023/08/11 09:52:05;;;;;;;0.00;0.00;;;;;;;;;;10364208;28;20112;-63
2023/08/11 09:57:06;;;;;;;0.00;0.00;;;;;;;;;;10359367;28;20075;-63
2023/08/11 10:02:10;;;;;;;0.00;0.00;;;;;;;;;;10356367;28;20028;-65
2023/08/11 10:07:12;;;;;;;0.00;0.00;;;;;;;;;;10360034;28;20287;-63
2023/08/11 10:12:12;;;;;;;0.00;0.00;;;;;;;;;;10355494;28;20071;-63
2023/08/11 10:17:12;;;;;;;0.00;0.00;;;;;;;;;;10363355;28;20101;-64
2023/08/11 10:22:13;;;;;;;0.00;0.00;;;;;;;;;;10355384;28;20773;-64
2023/08/11 10:27:14;;;;;;;0.00;0.00;;;;;;;;;;10355576;28;20014;-63
2023/08/11 10:32:14;;;;;;;0.00;0.00;;;;;;;;;;10361732;28;20025;-63
2023/08/11 10:37:14;;;;;;;0.10;0.10;;;;;;;;;;10359752;28;20040;-64
2023/08/11 10:42:14;;;;;;;0.00;0.00;;;;;;;;;;10358899;28;20484;-64
2023/08/11 10:47:17;;;;;;;0.00;0.00;;;;;;;;;;10361938;28;20036;-64
2023/08/11 10:52:18;;;;;;;0.00;0.00;;;;;;;;;;10362101;28;20018;-64
2023/08/11 10:57:20;;;;;;;0.00;0.00;;;;;;;;;;10358571;28;20452;-64
2023/08/11 11:02:20;;;;;;;;;;;;;;;;;;10359291;28;20050;-64
2023/08/11 11:07:24;;;;;;;0.10;0.10;;;;;;;;;;10361935;28;19928;-64
2023/08/11 11:12:26;;;;;;;0.10;0.10;;;;;;;;;;10358138;28;20018;-64
2023/08/11 11:17:26;;;;;;;0.00;0.00;;;;;;;;;;10362664;28;20478;-64
2023/08/11 11:22:26;;;;;;;0.00;0.00;;;;;;;;;;10362091;28;20023;-64
2023/08/11 11:27:26;;;;;;;0.00;0.00;;;;;;;;;;10361295;28;20466;-67
2023/08/11 11:32:27;;;;;;;0.00;0.00;;;;;;;;;;10362674;28;20022;-64
2023/08/11 11:37:27;;;;;;;0.10;0.10;;;;;;;;;;10346592;22;20097;-65
2023/08/11 11:42:27;;;;;;;0.00;0.00;;;;;;;;;;10308213;28;20129;-64
2023/08/11 11:47:28;;;;;;;0.00;0.00;;;;;;;;;;10305700;28;20026;-64
2023/08/11 11:52:28;;;;;;;0.10;0.10;;;;;;;;;;10304655;28;20027;-65
2023/08/11 11:57:29;;;;;;;0.00;0.00;;;;;;;;;;10310317;28;20026;-65
2023/08/11 12:02:29;;;;;;;0.10;0.10;;;;;;;;;;10320977;28;20501;-64
2023/08/11 12:07:33;;;;;;;0.00;0.00;;;;;;;;;;10329050;28;20027;-65
2023/08/11 12:12:33;;;;;;;0.00;0.00;;;;;;;;;;10323130;28;20417;-64
2023/08/11 12:17:34;;;;;;;0.10;0.10;;;;;;;;;;10312716;28;20034;-65
2023/08/11 12:22:34;;;;;;;0.10;0.10;;;;;;;;;;10317677;28;20500;-65
2023/08/11 12:27:35;;;;;;;0.10;0.10;;;;;;;;;;10319120;28;20092;-65
2023/08/11 12:32:36;;;;;;;0.00;0.00;;;;;;;;;;10319909;28;20427;-65
2023/08/11 12:37:36;;;;;;;0.00;0.00;;;;;;;;;;10318907;28;20109;-65
2023/08/11 12:42:36;;;;;;;0.00;0.00;;;;;;;;;;10323808;28;20056;-65
2023/08/11 12:47:36;;;;;;;0.10;0.10;;;;;;;;;;10327296;28;20065;-65
2023/08/11 12:52:37;;;;;;;0.10;0.10;;;;;;;;;;10311318;28;20026;-65
2023/08/11 12:57:37;;;;;;;0.00;0.00;;;;;;;;;;10304799;28;20023;-65
2023/08/11 13:02:37;;;;;;;0.00;0.00;;;;;;;;;;10318780;28;20022;-65
2023/08/11 13:07:37;;;;;;;0.10;0.10;;;;;;;;;;10307001;28;20026;-65
2023/08/11 13:12:38;;;;;;;0.10;0.10;;;;;;;;;;10318127;28;20041;-65
2023/08/11 13:17:39;;;;;;;0.00;0.00;;;;;;;;;;10317966;28;20115;-65
2023/08/11 13:22:39;;;;;;;0.00;0.00;;;;;;;;;;10314310;28;20581;-65
2023/08/11 13:27:42;;;;;;;0.00;0.00;;;;;;;;;;10316500;28;20026;-65
2023/08/11 13:32:42;;;;;;;0.00;0.00;;;;;;;;;;10317797;28;20118;-65
2023/08/11 13:37:43;;;;;;;0.00;0.00;;;;;;;;;;10317201;28;20445;-65
2023/08/11 13:42:43;;;;;;;0.10;0.10;;;;;;;;;;10318413;28;20491;-65
2023/08/11 13:47:43;;;;;;;0.00;0.00;;;;;;;;;;10316106;28;20073;-65
2023/08/11 13:52:43;;;;;;;0.10;0.10;;;;;;;;;;10312397;28;20042;-65
2023/08/11 13:57:44;;;;;;;0.00;0.00;;;;;;;;;;10314670;28;20051;-65
2023/08/11 14:02:45;;;;;;;0.00;0.00;;;;;;;;;;10318380;28;20057;-65
2023/08/11 14:07:48;;;;;;;0.00;0.00;;;;;;;;;;10310037;28;20073;-65
2023/08/11 14:12:48;;;;;;;0.10;0.10;;;;;;;;;;10316714;28;20081;-66
2023/08/11 14:17:49;;;;;;;0.00;0.00;;;;;;;;;;10318313;28;20026;-65
2023/08/11 14:22:49;;;;;;;0.00;0.00;;;;;;;;;;10311107;28;20015;-66
2023/08/11 14:27:49;;;;;;;0.00;0.00;;;;;;;;;;10315131;28;20048;-65
2023/08/11 14:32:49;;;;;;;0.00;0.00;;;;;;;;;;10305627;28;20014;-66
2023/08/11 14:37:49;;;;;;;0.10;0.10;;;;;;;;;;10311916;28;20539;-66
2023/08/11 14:42:50;;;;;;;0.00;0.00;;;;;;;;;;10310971;28;20393;-65
2023/08/11 14:47:50;;;;;;;0.00;0.00;;;;;;;;;;10309625;28;20022;-65
2023/08/11 14:52:50;;;;;;;0.00;0.00;;;;;;;;;;10310685;28;20015;-65
2023/08/11 14:57:50;;;;;;;0.00;0.00;;;;;;;;;;10311145;28;20030;-65
2023/08/11 15:02:51;;;;;;;0.10;0.10;;;;;;;;;;10315130;28;20023;-65
2023/08/11 15:07:51;;;;;;;0.00;0.00;;;;;;;;;;10310845;28;20015;-66
2023/08/11 15:12:51;;;;;;;0.10;0.10;;;;;;;;;;10302998;28;20018;-65
2023/08/11 15:17:51;;;;;;;0.00;0.00;;;;;;;;;;10308026;28;20045;-65
2023/08/11 15:22:51;;;;;;;0.00;0.00;;;;;;;;;;10312542;28;20020;-65
2023/08/11 15:27:51;;;;;;;0.00;0.00;;;;;;;;;;10315798;28;20022;-65
2023/08/11 15:32:52;;;;;;;0.00;0.00;;;;;;;;;;10310498;28;20464;-65
2023/08/11 15:37:52;;;;;;;0.00;0.00;;;;;;;;;;10320568;28;20065;-65
2023/08/11 15:42:52;;;;;;;0.00;0.00;;;;;;;;;;10316901;28;20025;-66
2023/08/11 15:47:52;;;;;;;0.00;0.00;;;;;;;;;;10330500;28;20014;-66
2023/08/11 15:52:52;;;;;;;0.10;0.10;;;;;;;;;;10322729;28;20058;-66
2023/08/11 15:57:53;;;;;;;0.00;0.00;;;;;;;;;;10322877;28;20478;-66
2023/08/11 16:02:53;;;;;;;0.00;0.00;;;;;;;;;;10321258;28;20394;-65
2023/08/11 16:07:53;;;;;;;0.10;0.10;;;;;;;;;;10306865;28;20011;-65
2023/08/11 16:12:53;;;;;;;0.10;0.10;;;;;;;;;;10311304;28;20049;-65
2023/08/11 16:17:54;;;;;;;0.00;0.00;;;;;;;;;;10311238;28;20097;-65
2023/08/11 16:22:55;;;;;;;0.00;0.00;;;;;;;;;;10319696;28;20045;-65
2023/08/11 16:27:55;;;;;;;0.00;0.00;;;;;;;;;;10321140;28;20101;-65
2023/08/11 16:32:55;;;;;;;0.00;0.00;;;;;;;;;;10320486;28;20042;-65
2023/08/11 16:37:55;;;;;;;0.00;0.00;;;;;;;;;;10320339;28;20085;-65
2023/08/11 16:42:55;;;;;;;0.00;0.00;;;;;;;;;;10317557;28;20092;-65
2023/08/11 16:47:56;;;;;;;0.00;0.00;;;;;;;;;;10314221;28;20089;-65
2023/08/11 16:52:56;;;;;;;0.00;0.00;;;;;;;;;;10312136;28;20088;-65
2023/08/11 16:57:56;;;;;;;0.00;0.00;;;;;;;;;;10315024;28;20379;-65
2023/08/11 17:02:56;;;;;;;0.00;0.00;;;;;;;;;;10317166;28;20282;-65
2023/08/11 17:07:56;;;;;;;0.00;0.00;;;;;;;;;;10320564;28;20014;-65
2023/08/11 17:12:57;;;;;;;0.00;0.00;;;;;;;;;;10316982;28;20049;-65
2023/08/11 17:17:57;;;;;;;0.00;0.00;;;;;;;;;;10314624;28;20030;-65
2023/08/11 17:22:57;;;;;;;0.00;0.00;;;;;;;;;;10317507;28;20022;-65
2023/08/11 17:27:57;;;;;;;0.10;0.10;;;;;;;;;;10315872;28;20039;-65
2023/08/11 17:32:58;;;;;;;0.00;0.00;;;;;;;;;;10318043;28;20030;-65
2023/08/11 17:37:58;;;;;;;0.00;0.00;;;;;;;;;;10317897;28;20482;-65
2023/08/11 17:42:58;;;;;;;0.00;0.00;;;;;;;;;;10319417;28;20429;-65
2023/08/11 17:47:58;;;;;;;0.00;0.00;;;;;;;;;;10320346;28;20018;-65
2023/08/11 17:52:58;;;;;;;0.00;0.00;;;;;;;;;;10310901;28;20023;-65
2023/08/11 17:57:59;;;;;;;0.00;0.00;;;;;;;;;;10312306;28;20157;-65
2023/08/11 18:02:59;;;;;;;0.00;0.00;;;;;;;;;;10317028;28;20080;-65
2023/08/11 18:07:59;;;;;;;0.10;0.10;;;;;;;;;;10318758;28;20481;-65
2023/08/11 18:12:59;;;;;;;0.00;0.00;;;;;;;;;;10320765;28;20492;-66
2023/08/11 18:18:00;;;;;;;0.00;0.00;;;;;;;;;;10330459;23;20066;-64
2023/08/11 18:23:00;;;;;;;0.00;0.00;;;;;;;;;;10308691;28;20388;-63
2023/08/11 18:28:00;;;;;;;0.00;0.00;;;;;;;;;;10310864;28;20046;-64
2023/08/11 18:33:00;;;;;;;0.00;0.00;;;;;;;;;;10303693;28;20046;-62
2023/08/11 18:38:01;;;;;;;0.00;0.00;;;;;;;;;;10289586;28;20437;-67
2023/08/11 18:43:01;;;;;;;0.10;0.10;;;;;;;;;;10289451;28;20050;-67
2023/08/11 18:48:02;;;;;;;0.00;0.00;;;;;;;;;;10290105;28;20401;-67
2023/08/11 18:53:03;;;;;;;0.00;0.00;;;;;;;;;;10289849;28;20051;-66
2023/08/11 18:58:03;;;;;;;0.00;0.00;;;;;;;;;;10288793;28;20054;-67
2023/08/11 19:03:03;;;;;;;0.00;0.00;;;;;;;;;;10289536;28;20023;-66
2023/08/11 19:08:04;;;;;;;0.10;0.10;;;;;;;;;;10288313;28;20093;-62
2023/08/11 19:13:05;;;;;;;0.00;0.00;;;;;;;;;;10302200;28;20029;-64
2023/08/11 19:18:05;;;;;;;0.00;0.00;;;;;;;;;;10291528;28;20027;-63
2023/08/11 19:23:05;;;;;;;0.00;0.00;;;;;;;;;;10310565;28;20397;-63
2023/08/11 19:28:07;;;;;;;0.00;0.00;;;;;;;;;;10316797;28;20121;-61
2023/08/11 19:33:07;;;;;;;0.00;0.00;;;;;;;;;;10300856;28;20471;-64
2023/08/11 19:38:07;;;;;;;0.10;0.10;;;;;;;;;;10289050;28;20031;-63
2023/08/11 19:43:07;;;;;;;0.00;0.00;;;;;;;;;;10305661;28;20393;-63
2023/08/11 19:48:07;;;;;;;0.00;0.00;;;;;;;;;;10293282;28;20470;-63
2023/08/11 19:53:07;;;;;;;0.00;0.00;;;;;;;;;;10314196;28;20393;-67
2023/08/11 19:58:08;;;;;;;0.00;0.00;;;;;;;;;;10301848;28;20386;-64
2023/08/11 20:03:08;;;;;;;0.10;0.10;;;;;;;;;;10295573;28;20428;-63
2023/08/11 20:08:09;;;;;;;0.00;0.00;;;;;;;;;;10311641;28;20030;-63
2023/08/11 20:13:09;;;;;;;0.00;0.00;;;;;;;;;;10271541;28;20110;-64
2023/08/11 20:18:09;;;;;;;0.00;0.00;;;;;;;;;;10309687;28;20382;-63
2023/08/11 20:23:09;;;;;;;0.00;0.00;;;;;;;;;;10302980;28;20113;-63
2023/08/11 20:28:09;;;;;;;0.00;0.00;;;;;;;;;;10308259;28;20073;-63
2023/08/11 20:33:10;;;;;;;0.00;0.00;;;;;;;;;;10319695;28;20046;-63
2023/08/11 20:38:10;;;;;;;0.00;0.00;;;;;;;;;;10311165;28;20084;-63
2023/08/11 20:43:10;;;;;;;0.00;0.00;;;;;;;;;;10315529;28;20053;-63
2023/08/11 20:48:10;;;;;;;0.00;0.00;;;;;;;;;;10314947;28;20006;-63
2023/08/11 20:53:11;;;;;;;0.00;0.00;;;;;;;;;;10314309;28;20105;-63
2023/08/11 20:58:11;;;;;;;0.00;0.00;;;;;;;;;;10312677;28;20025;-64
2023/08/11 21:03:11;;;;;;;0.10;0.10;;;;;;;;;;10303703;28;20470;-64
2023/08/11 21:08:13;;;;;;;0.00;0.00;;;;;;;;;;10307232;28;20077;-63
2023/08/11 21:13:13;;;;;;;0.00;0.00;;;;;;;;;;10306911;28;20015;-61
2023/08/11 21:18:14;;;;;;;0.00;0.00;;;;;;;;;;10312017;28;20022;-63
2023/08/11 21:23:17;;;;;;;0.00;0.00;;;;;;;;;;10321137;28;20026;-63
2023/08/11 21:28:17;;;;;;;;;;;;;;;;;;10305490;28;20450;-63
2023/08/11 21:33:17;;;;;;;0.00;0.00;;;;;;;;;;10310657;28;19906;-62
2023/08/11 21:38:17;;;;;;;0.00;0.00;;;;;;;;;;10319549;28;20022;-62
2023/08/11 21:43:17;;;;;;;0.00;0.00;;;;;;;;;;10322019;28;20110;-63
2023/08/11 21:48:18;;;;;;;0.00;0.00;;;;;;;;;;10313804;28;20021;-63
2023/08/11 21:53:18;;;;;;;0.10;0.10;;;;;;;;;;10308699;28;20026;-63
2023/08/11 21:58:18;;;;;;;0.10;0.10;;;;;;;;;;10313799;28;20037;-63
2023/08/11 22:03:18;;;;;;;0.10;0.10;;;;;;;;;;10308830;28;20023;-63
2023/08/11 22:08:18;;;;;;;0.00;0.00;;;;;;;;;;10304069;28;20018;-63
2023/08/11 22:13:19;;;;;;;0.00;0.00;;;;;;;;;;10303244;28;20019;-64
2023/08/11 22:18:19;;;;;;;0.10;0.10;;;;;;;;;;10311094;28;20503;-63
2023/08/11 22:23:19;;;;;;;0.00;0.00;;;;;;;;;;10315265;28;20018;-63
2023/08/11 22:28:19;;;;;;;0.10;0.10;;;;;;;;;;10298060;28;20157;-63
2023/08/11 22:33:20;;;;;;;0.00;0.00;;;;;;;;;;10312409;28;20030;-63
2023/08/11 22:38:20;;;;;;;0.00;0.00;;;;;;;;;;10313872;28;20038;-63
2023/08/11 22:43:20;;;;;;;0.00;0.00;;;;;;;;;;10313921;28;20077;-63
2023/08/11 22:48:20;;;;;;;0.00;0.00;;;;;;;;;;10312258;28;20351;-63
2023/08/11 22:53:20;;;;;;;0.00;0.00;;;;;;;;;;10306516;28;20022;-63
2023/08/11 22:58:20;;;;;;;0.00;0.00;;;;;;;;;;10303029;28;20298;-62
2023/08/11 23:03:21;;;;;;;0.00;0.00;;;;;;;;;;10319972;28;20021;-63
2023/08/11 23:08:21;;;;;;;0.00;0.00;;;;;;;;;;10303635;28;20031;-62
2023/08/11 23:13:21;;;;;;;0.00;0.00;;;;;;;;;;10302688;28;20081;-63
2023/08/11 23:18:21;;;;;;;0.00;0.00;;;;;;;;;;10304602;28;20026;-62
2023/08/11 23:23:21;;;;;;;0.10;0.10;;;;;;;;;;10308680;28;20042;-62
2023/08/11 23:28:21;;;;;;;0.00;0.00;;;;;;;;;;10311567;28;20433;-62
2023/08/11 23:33:22;;;;;;;0.00;0.00;;;;;;;;;;10312299;28;20014;-63
2023/08/11 23:38:22;;;;;;;0.00;0.00;;;;;;;;;;10308531;28;20029;-61
2023/08/11 23:43:23;;;;;;;0.10;0.10;;;;;;;;;;10302131;28;20478;-62
2023/08/11 23:48:23;;;;;;;0.05;0.05;;;;;;;;;;10314717;28;20011;-62
2023/08/11 23:53:23;;;;;;;0.00;0.00;;;;;;;;;;10311798;28;20697;-63
2023/08/11 23:58:24;;;;;;;0.00;0.00;;;;;;;;;;10296101;28;20065;-63
